KKJ weather

Kitakyūshū Airport
Kitakyūshū, Fukuoka Prefecture, Japan

Public forecast

Using degrees Celsius for public forecast. Weather courtesy of forecast.io.

METAR (pilot weather report)

Retrieved 2019/05/24 06:00 UTC (18 minutes ago):

RJFR 240600Z 28013KT 240V310 CAVOK 30/10 Q1012

TAF (pilot weather forecast)

Retrieved 2019/05/24 06:33 UTC (0 seconds ago):

TAF TAF RJFR 240510Z 2406/2512 30009KT 9999 FEW030 BECMG 2410/2412 20004KT BECMG 2418/2421 04005KT BECMG 2500/2503 10005KT